Time;durP1;ratioP1;P1;durP2;ratioP2;P2;SDS_P1;SDS_P2;PMS_P1;PMS_P2;Temp;Humidity;BMP_temperature;BMP_pressure;BME280_temperature;BME280_humidity;BME280_pressure;Samples;Min_cycle;Max_cycle;Signal;HPM_P1;HPM_P2
2023/08/03 00:02:16;;;;;;;1.02;0.60;;;21.40;67.00;;;;;;5043255;28;20041;-69
2023/08/03 00:04:42;;;;;;;1.10;0.70;;;21.40;67.00;;;;;;5065440;28;20033;-68
2023/08/03 00:07:08;;;;;;;0.70;0.55;;;21.30;66.90;;;;;;5066895;28;20104;-67
2023/08/03 00:09:34;;;;;;;1.58;0.70;;;21.30;66.90;;;;;;5045482;28;20041;-69
2023/08/03 00:12:00;;;;;;;0.90;0.88;;;21.30;66.90;;;;;;5061508;28;20032;-68
2023/08/03 00:14:26;;;;;;;0.57;0.57;;;21.30;67.00;;;;;;5060252;28;20062;-71
2023/08/03 00:16:52;;;;;;;1.67;1.02;;;21.20;66.90;;;;;;5062469;28;20141;-72
2023/08/03 00:19:18;;;;;;;0.70;0.55;;;21.20;66.90;;;;;;5062617;28;20411;-71
2023/08/03 00:21:44;;;;;;;0.75;0.75;;;21.20;66.90;;;;;;5057813;28;20028;-67
2023/08/03 00:24:10;;;;;;;0.60;0.60;;;21.20;67.00;;;;;;5061071;28;20058;-75
2023/08/03 00:26:36;;;;;;;0.60;0.55;;;21.20;67.00;;;;;;5063569;28;20040;-69
2023/08/03 00:29:01;;;;;;;1.83;1.20;;;21.20;67.10;;;;;;5061816;28;20473;-69
2023/08/03 00:31:27;;;;;;;1.08;0.70;;;21.20;67.10;;;;;;5062960;28;20040;-72
2023/08/03 00:33:54;;;;;;;1.58;0.60;;;21.20;67.10;;;;;;5063492;28;20132;-71
2023/08/03 00:36:20;;;;;;;0.82;0.60;;;21.20;67.10;;;;;;5069017;28;20515;-66
2023/08/03 00:38:46;;;;;;;0.57;0.40;;;21.10;66.90;;;;;;5060146;28;20623;-69
2023/08/03 00:41:16;;;;;;;0.90;0.65;;;21.10;66.90;;;;;;5061707;28;20025;-69
2023/08/03 00:43:42;;;;;;;1.65;0.80;;;21.10;67.00;;;;;;5062971;28;20029;-76
2023/08/03 00:46:08;;;;;;;1.63;0.52;;;21.10;67.00;;;;;;5051269;28;20017;-70
2023/08/03 00:48:34;;;;;;;0.80;0.80;;;21.10;67.00;;;;;;5057529;28;20032;-76
2023/08/03 00:51:00;;;;;;;1.33;0.50;;;21.10;67.10;;;;;;5062698;28;20048;-69
2023/08/03 00:53:26;;;;;;;0.70;0.70;;;21.10;67.10;;;;;;5059732;28;20044;-66
2023/08/03 00:55:52;;;;;;;1.27;0.90;;;21.00;66.90;;;;;;5066793;28;20111;-76
2023/08/03 00:58:18;;;;;;;1.70;0.85;;;21.00;66.90;;;;;;5063034;28;20493;-69
2023/08/03 01:00:45;;;;;;;1.70;0.70;;;21.00;67.00;;;;;;5060754;28;20037;-68
2023/08/03 01:03:11;;;;;;;1.42;0.73;;;20.90;66.80;;;;;;5066336;28;20024;-76
2023/08/03 01:05:38;;;;;;;2.05;0.90;;;20.90;66.90;;;;;;5066750;28;20040;-79
2023/08/03 01:08:04;;;;;;;1.13;0.93;;;20.90;66.90;;;;;;5051922;28;20020;-74
2023/08/03 01:10:31;;;;;;;2.45;1.20;;;20.80;66.80;;;;;;5051734;28;20043;-73
2023/08/03 01:12:59;;;;;;;0.85;0.60;;;20.80;66.80;;;;;;5063734;28;20036;-67
2023/08/03 01:15:25;;;;;;;0.85;0.55;;;20.80;66.80;;;;;;5060067;28;20036;-72
2023/08/03 01:17:52;;;;;;;0.70;0.52;;;20.80;66.80;;;;;;5063463;28;20122;-72
2023/08/03 01:20:20;;;;;;;1.27;0.80;;;20.80;66.90;;;;;;5070181;28;20039;-74
2023/08/03 01:22:47;;;;;;;1.25;0.80;;;20.80;66.90;;;;;;5062037;28;20067;-71
2023/08/03 01:25:13;;;;;;;1.58;0.80;;;20.80;67.00;;;;;;5077881;28;20488;-74
2023/08/03 01:27:40;;;;;;;0.93;0.77;;;20.80;67.00;;;;;;5066534;28;20020;-75
2023/08/03 01:30:07;;;;;;;0.82;0.70;;;20.70;66.80;;;;;;5078041;28;20602;-74
2023/08/03 01:32:34;;;;;;;1.20;0.63;;;20.70;66.80;;;;;;5071490;28;20028;-67
2023/08/03 01:35:00;;;;;;;1.25;0.60;;;20.70;66.90;;;;;;5064623;28;20128;-76
2023/08/03 01:37:26;;;;;;;1.98;0.90;;;20.70;66.90;;;;;;5067581;28;20071;-67
2023/08/03 01:39:53;;;;;;;1.75;0.73;;;20.70;66.90;;;;;;5056655;28;20647;-67
2023/08/03 01:42:21;;;;;;;1.67;0.70;;;20.70;66.90;;;;;;5062048;28;20032;-67
2023/08/03 01:44:47;;;;;;;1.50;0.85;;;20.70;67.00;;;;;;5058759;28;20056;-78
2023/08/03 01:47:13;;;;;;;1.25;0.80;;;20.60;66.70;;;;;;5057047;28;20074;-75
2023/08/03 01:49:39;;;;;;;1.02;0.60;;;20.70;67.00;;;;;;5078609;28;20055;-74
2023/08/03 01:52:05;;;;;;;1.00;0.80;;;20.60;66.80;;;;;;5073649;28;20682;-74
2023/08/03 01:54:31;;;;;;;1.83;1.30;;;20.60;66.80;;;;;;5071647;28;20036;-78
2023/08/03 01:56:57;;;;;;;0.88;0.68;;;20.60;66.90;;;;;;5078177;28;20059;-79
2023/08/03 01:59:23;;;;;;;1.48;0.82;;;20.60;66.90;;;;;;5057084;28;20072;-77
2023/08/03 02:01:50;;;;;;;1.23;0.82;;;20.50;66.70;;;;;;5076182;28;20039;-78
2023/08/03 02:04:17;;;;;;;1.98;0.70;;;20.50;66.70;;;;;;5052010;28;20128;-78
2023/08/03 02:06:49;;;;;;;0.90;0.80;;;20.50;66.80;;;;;;5071952;28;20041;-77
2023/08/03 02:09:15;;;;;;;2.05;0.73;;;20.50;66.80;;;;;;5056160;28;20055;-77
2023/08/03 02:11:41;;;;;;;1.48;0.65;;;20.50;66.80;;;;;;5066243;28;20047;-73
2023/08/03 02:14:07;;;;;;;1.85;0.88;;;20.50;66.90;;;;;;5062478;28;20028;-68
2023/08/03 02:16:33;;;;;;;1.48;0.73;;;20.40;66.70;;;;;;5065761;28;20043;-68
2023/08/03 02:18:59;;;;;;;1.67;0.80;;;20.40;66.80;;;;;;5073114;28;20123;-68
2023/08/03 02:21:25;;;;;;;1.00;0.90;;;20.40;66.80;;;;;;5044061;28;20036;-71
2023/08/03 02:23:53;;;;;;;0.77;0.73;;;20.40;66.90;;;;;;5060477;28;20115;-69
2023/08/03 02:26:20;;;;;;;1.00;0.60;;;20.40;66.90;;;;;;5079590;28;20042;-70
2023/08/03 02:28:46;;;;;;;0.60;0.60;;;20.40;66.90;;;;;;5076898;28;20131;-67
2023/08/03 02:31:13;;;;;;;1.52;0.65;;;20.40;66.90;;;;;;5079216;28;20072;-66
2023/08/03 02:33:44;;;;;;;0.70;0.55;;;20.40;66.90;;;;;;5057514;28;20041;-68
2023/08/03 02:36:11;;;;;;;1.20;0.70;;;20.40;66.90;;;;;;5083745;28;20063;-69
2023/08/03 02:38:38;;;;;;;1.33;0.70;;;20.40;66.90;;;;;;5058018;28;20093;-68
2023/08/03 02:41:05;;;;;;;2.95;1.05;;;20.40;67.00;;;;;;5074698;28;20074;-69
2023/08/03 02:43:33;;;;;;;0.55;0.55;;;20.40;67.00;;;;;;5072842;28;20032;-68
2023/08/03 02:46:00;;;;;;;1.23;0.90;;;20.30;66.80;;;;;;5047480;28;20123;-67
2023/08/03 02:48:28;;;;;;;1.02;0.70;;;20.30;66.80;;;;;;5060212;28;20036;-70
2023/08/03 02:50:58;;;;;;;1.42;1.00;;;20.40;67.10;;;;;;5066864;28;20160;-69
2023/08/03 02:53:25;;;;;;;0.85;0.75;;;20.30;66.90;;;;;;5061413;28;20101;-71
2023/08/03 02:55:52;;;;;;;1.63;0.85;;;20.30;66.90;;;;;;5068161;28;20591;-70
2023/08/03 02:58:18;;;;;;;1.10;0.70;;;20.30;67.00;;;;;;5065125;28;20415;-78
2023/08/03 03:00:44;;;;;;;0.70;0.60;;;20.30;67.00;;;;;;5062021;28;20037;-79
2023/08/03 03:03:12;;;;;;;1.45;0.75;;;20.30;67.10;;;;;;5064765;28;20024;-75
2023/08/03 03:05:39;;;;;;;0.80;0.75;;;20.30;67.10;;;;;;5066249;28;20534;-74
2023/08/03 03:08:09;;;;;;;0.98;0.70;;;20.30;67.10;;;;;;5061519;28;20135;-76
2023/08/03 03:10:37;;;;;;;1.58;1.05;;;20.30;67.10;;;;;;5058711;28;20040;-72
2023/08/03 03:13:03;;;;;;;1.00;0.70;;;20.20;67.00;;;;;;5066391;28;20605;-69
2023/08/03 03:15:29;;;;;;;1.33;1.13;;;20.20;67.00;;;;;;5067016;28;20116;-68
2023/08/03 03:17:55;;;;;;;1.45;1.00;;;20.20;67.10;;;;;;5061344;28;20384;-69
2023/08/03 03:20:24;;;;;;;1.50;0.80;;;20.20;67.10;;;;;;5064766;28;20419;-68
2023/08/03 03:22:50;;;;;;;1.02;0.80;;;20.10;67.00;;;;;;5062994;28;20032;-70
2023/08/03 03:25:16;;;;;;;0.80;0.80;;;20.10;67.00;;;;;;5060400;28;20143;-67
2023/08/03 03:27:42;;;;;;;1.08;0.63;;;20.10;67.10;;;;;;5063610;28;20035;-66
2023/08/03 03:30:11;;;;;;;0.85;0.52;;;20.10;67.10;;;;;;5064314;28;20047;-68
2023/08/03 03:32:38;;;;;;;1.42;0.75;;;20.10;67.10;;;;;;5065162;28;20037;-70
2023/08/03 03:35:04;;;;;;;1.23;0.70;;;20.10;67.10;;;;;;5063583;28;20069;-67
2023/08/03 03:37:30;;;;;;;1.05;0.80;;;20.10;67.10;;;;;;5062162;28;20029;-70
2023/08/03 03:39:57;;;;;;;1.58;0.93;;;20.00;67.00;;;;;;5062686;28;20580;-72
2023/08/03 03:42:31;;;;;;;1.85;0.65;;;20.00;66.90;;;;;;5063234;28;20804;-68
2023/08/03 03:44:58;;;;;;;1.13;0.85;;;20.00;66.90;;;;;;5059986;28;20128;-68
2023/08/03 03:47:27;;;;;;;1.20;0.90;;;20.00;67.00;;;;;;5063637;28;20028;-68
2023/08/03 03:49:56;;;;;;;1.58;0.80;;;20.00;67.00;;;;;;5075363;28;20044;-68
2023/08/03 03:52:22;;;;;;;1.80;0.70;;;20.00;67.00;;;;;;5061654;28;20715;-67
2023/08/03 03:54:48;;;;;;;0.98;0.82;;;20.00;67.00;;;;;;5064979;28;20028;-68
2023/08/03 03:57:16;;;;;;;1.15;0.90;;;20.00;67.00;;;;;;5064196;28;20085;-71
2023/08/03 03:59:42;;;;;;;0.63;0.60;;;20.00;67.00;;;;;;5082559;28;20064;-67
2023/08/03 04:02:08;;;;;;;1.05;0.77;;;20.00;67.00;;;;;;5076221;28;20040;-67
2023/08/03 04:04:34;;;;;;;1.27;1.00;;;20.00;67.00;;;;;;5060841;28;20581;-70
2023/08/03 04:07:00;;;;;;;1.52;0.90;;;20.00;67.00;;;;;;5059651;28;20050;-68
2023/08/03 04:09:28;;;;;;;1.50;0.80;;;20.00;67.00;;;;;;5048600;28;20109;-71
2023/08/03 04:11:54;;;;;;;1.50;1.10;;;19.90;66.80;;;;;;5070346;28;20127;-67
2023/08/03 04:14:21;;;;;;;0.98;0.80;;;20.00;67.00;;;;;;5063663;28;20039;-66
2023/08/03 04:16:47;;;;;;;2.00;0.95;;;19.90;66.80;;;;;;5058067;28;20028;-66
2023/08/03 04:19:14;;;;;;;0.75;0.63;;;19.90;66.80;;;;;;5057705;28;20496;-74
2023/08/03 04:21:40;;;;;;;1.75;0.82;;;19.90;66.80;;;;;;5063076;28;20037;-72
2023/08/03 04:24:06;;;;;;;1.67;1.17;;;19.90;66.90;;;;;;5059546;28;20046;-66
2023/08/03 04:26:33;;;;;;;1.48;1.05;;;19.90;66.90;;;;;;5061454;28;20120;-66
2023/08/03 04:29:00;;;;;;;1.83;0.90;;;19.90;66.90;;;;;;5061141;28;20036;-70
2023/08/03 04:31:28;;;;;;;1.08;0.98;;;19.90;66.90;;;;;;5059010;28;20041;-72
2023/08/03 04:33:54;;;;;;;1.45;0.90;;;19.80;66.80;;;;;;5061124;28;20032;-68
2023/08/03 04:36:23;;;;;;;1.95;0.90;;;19.80;66.80;;;;;;5060525;28;20396;-67
2023/08/03 04:38:49;;;;;;;0.90;0.90;;;19.80;66.90;;;;;;5059975;28;20040;-67
2023/08/03 04:41:16;;;;;;;2.58;1.35;;;19.80;66.90;;;;;;5061232;28;20081;-71
2023/08/03 04:43:45;;;;;;;2.65;0.77;;;19.80;66.90;;;;;;5060323;28;20052;-69
2023/08/03 04:46:12;;;;;;;1.77;0.93;;;19.80;66.90;;;;;;5053030;28;20110;-69
2023/08/03 04:48:39;;;;;;;2.88;0.90;;;19.80;67.00;;;;;;5057957;28;20032;-73
2023/08/03 04:51:07;;;;;;;0.60;0.60;;;19.80;67.00;;;;;;5069731;28;20040;-70
2023/08/03 04:53:35;;;;;;;1.75;1.05;;;19.80;67.50;;;;;;5065649;28;20114;-66
2023/08/03 04:56:01;;;;;;;2.58;1.10;;;19.80;67.00;;;;;;5073758;28;20028;-66
2023/08/03 04:58:27;;;;;;;1.40;0.73;;;19.80;67.00;;;;;;5067583;28;20897;-66
2023/08/03 05:00:53;;;;;;;0.77;0.60;;;19.80;67.00;;;;;;5060125;28;20054;-67
2023/08/03 05:03:20;;;;;;;1.77;1.10;;;19.80;67.00;;;;;;5069236;28;20165;-68
2023/08/03 05:05:46;;;;;;;0.95;0.80;;;19.80;67.00;;;;;;5069067;28;20036;-65
2023/08/03 05:08:15;;;;;;;1.23;0.80;;;19.80;67.00;;;;;;5063196;28;20021;-66
2023/08/03 05:10:41;;;;;;;2.42;0.65;;;19.80;67.00;;;;;;5058827;28;20051;-69
2023/08/03 05:13:07;;;;;;;1.73;0.80;;;19.80;67.00;;;;;;5057155;28;20063;-69
2023/08/03 05:15:33;;;;;;;1.25;0.60;;;19.70;66.90;;;;;;5073209;28;20516;-68
2023/08/03 05:18:03;;;;;;;1.85;0.80;;;19.70;66.90;;;;;;5071074;28;20021;-67
2023/08/03 05:20:28;;;;;;;2.35;1.48;;;19.70;66.90;;;;;;5074541;28;20450;-67
2023/08/03 05:22:55;;;;;;;2.05;0.85;;;19.70;66.90;;;;;;5066562;28;20497;-66
2023/08/03 05:25:21;;;;;;;2.95;0.93;;;19.70;66.90;;;;;;5079170;28;20046;-68
2023/08/03 05:27:47;;;;;;;1.75;0.75;;;19.70;66.90;;;;;;5058957;28;20127;-67
2023/08/03 05:30:13;;;;;;;1.30;0.80;;;19.70;67.00;;;;;;5069454;28;20036;-67
2023/08/03 05:32:39;;;;;;;2.63;1.30;;;19.70;67.00;;;;;;5070510;28;20123;-69
2023/08/03 05:35:05;;;;;;;1.83;1.20;;;19.70;67.20;;;;;;5067364;28;20101;-70
2023/08/03 05:37:31;;;;;;;1.88;0.70;;;19.70;67.70;;;;;;5062081;28;20036;-71
2023/08/03 05:39:57;;;;;;;1.88;1.00;;;19.70;68.10;;;;;;5068671;28;20024;-65
2023/08/03 05:42:24;;;;;;;1.88;0.90;;;19.80;68.70;;;;;;5063925;28;20135;-67
2023/08/03 05:44:50;;;;;;;2.35;1.23;;;19.80;69.10;;;;;;5038641;28;20456;-75
2023/08/03 05:47:19;;;;;;;1.52;1.00;;;19.90;69.40;;;;;;5052391;28;20074;-71
2023/08/03 05:49:45;;;;;;;3.78;1.30;;;20.00;69.80;;;;;;5061661;28;20044;-65
2023/08/03 05:52:13;;;;;;;3.88;1.20;;;20.00;69.90;;;;;;5068749;28;20093;-68
2023/08/03 05:54:39;;;;;;;30.42;7.05;;;20.10;70.20;;;;;;5061591;28;20020;-69
2023/08/03 05:57:09;;;;;;;27.02;7.63;;;20.10;70.20;;;;;;5057132;28;20546;-67
2023/08/03 05:59:36;;;;;;;34.55;9.63;;;20.20;70.50;;;;;;5057957;28;20029;-67
2023/08/03 06:02:12;;;;;;;29.00;8.10;;;20.20;70.50;;;;;;5050416;28;20159;-71
2023/08/03 06:04:38;;;;;;;29.83;7.70;;;20.30;70.80;;;;;;5061393;28;20635;-66
2023/08/03 06:07:05;;;;;;;28.13;8.07;;;20.30;70.80;;;;;;5054925;28;20511;-70
2023/08/03 06:09:34;;;;;;;28.55;8.52;;;20.30;70.80;;;;;;5055993;28;20240;-67
2023/08/03 06:12:00;;;;;;;23.65;6.38;;;20.30;70.80;;;;;;5057738;28;20039;-65
2023/08/03 06:14:26;;;;;;;20.35;6.75;;;20.40;71.10;;;;;;5056078;28;20040;-69
2023/08/03 06:16:52;;;;;;;22.15;6.45;;;20.40;71.00;;;;;;5059343;28;20515;-71
2023/08/03 06:19:18;;;;;;;15.63;6.32;;;20.50;71.10;;;;;;5055362;28;20032;-73
2023/08/03 06:21:44;;;;;;;15.70;4.47;;;20.50;70.90;;;;;;5056611;28;20043;-69
2023/08/03 06:24:10;;;;;;;15.13;4.97;;;20.50;70.70;;;;;;5054346;28;20123;-67
2023/08/03 06:26:38;;;;;;;12.20;5.20;;;20.50;70.60;;;;;;5055387;28;20024;-66
2023/08/03 06:29:05;;;;;;;11.75;5.20;;;20.50;70.50;;;;;;5062471;28;20506;-70
2023/08/03 06:31:39;;;;;;;24.65;5.70;;;20.50;70.40;;;;;;5054855;28;20045;-66
2023/08/03 06:34:05;;;;;;;9.98;4.18;;;20.50;70.40;;;;;;5070364;28;20053;-66
2023/08/03 06:36:32;;;;;;;8.07;3.40;;;20.40;70.10;;;;;;5068810;28;20032;-66
2023/08/03 06:38:58;;;;;;;8.45;3.25;;;20.40;70.00;;;;;;5062582;28;20040;-68
2023/08/03 06:41:25;;;;;;;10.88;3.13;;;20.40;69.90;;;;;;5060169;28;20566;-68
2023/08/03 06:43:53;;;;;;;14.65;3.85;;;20.40;69.80;;;;;;5059361;28;20507;-68
2023/08/03 06:46:19;;;;;;;7.40;2.53;;;20.40;69.80;;;;;;5050704;28;20488;-68
2023/08/03 06:48:45;;;;;;;10.73;3.85;;;20.40;69.70;;;;;;5057951;28;20025;-68
2023/08/03 06:51:11;;;;;;;7.88;3.35;;;20.40;69.70;;;;;;5061420;28;20458;-67
2023/08/03 06:53:37;;;;;;;9.65;3.20;;;20.30;69.50;;;;;;5066461;28;20028;-67
2023/08/03 06:56:03;;;;;;;7.32;3.30;;;20.30;69.40;;;;;;5063811;28;20032;-67
2023/08/03 06:58:29;;;;;;;9.60;3.83;;;20.30;69.40;;;;;;5059231;28;20039;-68
2023/08/03 07:00:55;;;;;;;9.98;4.18;;;20.30;69.30;;;;;;5062664;28;20287;-68
2023/08/03 07:03:21;;;;;;;7.72;3.55;;;20.30;69.30;;;;;;5064678;28;20060;-70
2023/08/03 07:05:47;;;;;;;6.60;3.63;;;20.30;69.20;;;;;;5082383;28;20688;-69
2023/08/03 07:08:13;;;;;;;6.60;2.75;;;20.30;69.20;;;;;;5055618;28;20047;-68
2023/08/03 07:10:39;;;;;;;6.40;3.40;;;20.30;69.10;;;;;;5061980;28;20044;-67
2023/08/03 07:13:06;;;;;;;7.00;4.20;;;20.30;69.00;;;;;;5058705;28;20040;-69
2023/08/03 07:15:34;;;;;;;6.20;3.20;;;20.30;68.90;;;;;;5066459;28;20663;-68
2023/08/03 07:18:05;;;;;;;6.72;3.58;;;20.40;69.60;;;;;;5071247;28;20040;-68
2023/08/03 07:20:33;;;;;;;5.68;3.30;;;20.40;69.00;;;;;;5073359;28;20028;-67
2023/08/03 07:23:00;;;;;;;5.40;2.45;;;20.40;68.90;;;;;;5064802;28;20036;-70
2023/08/03 07:25:26;;;;;;;5.00;2.83;;;20.40;68.70;;;;;;5062297;28;20036;-68
2023/08/03 07:27:53;;;;;;;5.50;3.30;;;20.40;68.70;;;;;;5061701;28;20044;-68
2023/08/03 07:30:19;;;;;;;6.28;3.80;;;20.40;68.60;;;;;;5059804;28;20742;-68
2023/08/03 07:32:46;;;;;;;7.88;3.67;;;20.50;68.70;;;;;;5065443;28;20504;-68
2023/08/03 07:35:12;;;;;;;4.30;3.05;;;20.50;68.50;;;;;;5047190;28;20889;-68
2023/08/03 07:37:38;;;;;;;4.85;3.03;;;20.50;68.40;;;;;;5068396;28;20608;-68
2023/08/03 07:40:04;;;;;;;2.78;2.50;;;20.60;68.50;;;;;;5071653;28;20047;-68
2023/08/03 07:42:30;;;;;;;3.30;2.13;;;20.60;68.30;;;;;;5064060;28;20043;-67
2023/08/03 07:44:58;;;;;;;4.90;2.90;;;20.70;68.30;;;;;;5067868;28;20097;-71
2023/08/03 07:47:24;;;;;;;3.42;2.00;;;20.70;68.10;;;;;;5055202;28;20029;-71
2023/08/03 07:49:55;;;;;;;3.80;2.47;;;20.70;67.90;;;;;;5060683;28;20456;-68
2023/08/03 07:52:21;;;;;;;3.03;1.80;;;20.80;67.80;;;;;;5077365;28;20652;-69
2023/08/03 07:54:47;;;;;;;4.63;2.63;;;20.90;67.80;;;;;;5059362;28;20485;-70
2023/08/03 07:57:15;;;;;;;6.63;5.18;;;21.00;67.80;;;;;;5067484;28;20032;-72
2023/08/03 07:59:50;;;;;;;8.20;5.97;;;21.10;67.70;;;;;;5076738;28;20127;-67
2023/08/03 08:02:16;;;;;;;9.73;6.07;;;21.20;67.60;;;;;;5064095;28;20171;-69
2023/08/03 08:04:42;;;;;;;8.50;6.35;;;21.30;67.50;;;;;;5072865;28;20539;-67
2023/08/03 08:07:08;;;;;;;7.05;5.03;;;21.40;67.30;;;;;;5066156;28;20059;-68
2023/08/03 08:09:34;;;;;;;7.88;5.78;;;21.50;67.20;;;;;;5063323;28;20112;-68
2023/08/03 08:12:00;;;;;;;5.95;4.57;;;21.70;67.80;;;;;;5066350;28;20559;-73
2023/08/03 08:14:26;;;;;;;8.13;5.60;;;21.80;67.10;;;;;;5074280;28;20032;-72
2023/08/03 08:16:52;;;;;;;5.20;4.70;;;21.90;66.90;;;;;;5069902;28;20021;-70
2023/08/03 08:19:18;;;;;;;5.43;4.45;;;22.00;66.80;;;;;;5054817;28;20595;-72
2023/08/03 08:21:44;;;;;;;9.82;4.72;;;22.20;66.90;;;;;;5079272;28;20400;-71
2023/08/03 08:24:10;;;;;;;6.50;4.32;;;22.30;66.80;;;;;;5053531;28;20029;-70
2023/08/03 08:26:36;;;;;;;6.45;4.15;;;22.40;66.60;;;;;;5079875;28;20036;-75
2023/08/03 08:29:02;;;;;;;6.40;4.07;;;22.50;66.50;;;;;;5067584;28;20408;-70
2023/08/03 08:31:28;;;;;;;6.32;4.07;;;22.70;66.50;;;;;;5064286;28;20090;-70
2023/08/03 08:33:54;;;;;;;5.65;4.03;;;22.80;66.30;;;;;;5064391;28;20080;-71
2023/08/03 08:36:20;;;;;;;6.28;3.50;;;22.90;66.20;;;;;;5071424;28;20063;-71
2023/08/03 08:38:46;;;;;;;5.50;3.40;;;23.10;66.10;;;;;;5062426;28;20024;-75
2023/08/03 08:41:12;;;;;;;4.57;3.40;;;23.20;65.90;;;;;;5067000;28;20123;-72
2023/08/03 08:43:41;;;;;;;5.47;3.45;;;23.30;65.60;;;;;;5063603;28;20057;-73
2023/08/03 08:46:06;;;;;;;13.25;7.90;;;23.50;65.50;;;;;;5055435;28;20036;-68
2023/08/03 08:48:34;;;;;;;5.20;3.80;;;23.70;65.40;;;;;;5058798;28;20531;-68
2023/08/03 08:51:04;;;;;;;7.07;3.83;;;23.80;65.10;;;;;;5060264;28;20474;-67
2023/08/03 08:53:30;;;;;;;4.07;2.75;;;24.00;65.00;;;;;;5057920;28;20056;-68
2023/08/03 08:55:56;;;;;;;5.00;2.90;;;24.20;64.90;;;;;;5058145;28;20115;-68
2023/08/03 08:58:24;;;;;;;4.70;3.60;;;24.30;64.70;;;;;;5058018;28;20090;-67
2023/08/03 09:00:50;;;;;;;6.25;3.25;;;24.50;64.60;;;;;;5060130;28;20051;-67
2023/08/03 09:03:16;;;;;;;4.35;2.88;;;24.70;64.50;;;;;;5060862;28;20424;-69
2023/08/03 09:05:42;;;;;;;4.70;2.63;;;24.80;64.30;;;;;;5061403;28;20039;-67
2023/08/03 09:08:18;;;;;;;5.22;2.70;;;24.90;64.00;;;;;;5050108;28;20029;-67
2023/08/03 09:10:52;;;;;;;5.45;3.22;;;25.10;63.80;;;;;;5059148;28;20140;-69
2023/08/03 09:13:29;;;;;;;3.78;2.30;;;25.10;63.50;;;;;;5053555;28;20028;-71
2023/08/03 09:15:55;;;;;;;3.13;2.38;;;25.30;63.30;;;;;;5054417;28;20040;-68
2023/08/03 09:18:22;;;;;;;3.90;2.13;;;25.50;63.20;;;;;;5059467;28;20059;-71
2023/08/03 09:20:49;;;;;;;3.45;2.00;;;25.60;62.80;;;;;;5058400;28;20119;-68
2023/08/03 09:23:27;;;;;;;3.17;1.95;;;25.80;62.50;;;;;;5059763;28;20059;-67
2023/08/03 09:25:53;;;;;;;6.18;2.03;;;26.00;62.00;;;;;;5059440;28;20032;-69
2023/08/03 09:28:19;;;;;;;3.03;1.83;;;26.10;62.00;;;;;;5060260;28;20051;-68
2023/08/03 09:30:50;;;;;;;2.63;1.90;;;26.20;61.70;;;;;;5060246;28;20078;-70
2023/08/03 09:33:16;;;;;;;3.38;2.08;;;26.30;61.40;;;;;;5060128;28;20039;-69
2023/08/03 09:35:42;;;;;;;4.28;1.92;;;26.40;61.20;;;;;;5057357;28;20063;-70
2023/08/03 09:38:23;;;;;;;2.97;1.92;;;26.50;60.90;;;;;;5055360;28;20036;-68
2023/08/03 09:40:50;;;;;;;2.15;1.33;;;26.70;60.50;;;;;;5062370;28;20451;-71
2023/08/03 09:43:17;;;;;;;3.35;1.95;;;26.90;60.40;;;;;;5065798;28;20039;-74
2023/08/03 09:45:45;;;;;;;3.00;1.83;;;27.00;60.60;;;;;;5070555;28;20157;-71
2023/08/03 09:48:12;;;;;;;3.00;1.80;;;27.20;59.80;;;;;;5057070;28;20036;-72
2023/08/03 09:50:44;;;;;;;2.67;1.95;;;27.30;59.60;;;;;;5059041;28;20559;-72
2023/08/03 09:53:16;;;;;;;2.03;1.70;;;27.40;59.20;;;;;;5050839;28;20513;-68
2023/08/03 09:55:47;;;;;;;2.08;1.33;;;27.60;59.00;;;;;;5078820;28;20124;-68
2023/08/03 09:58:22;;;;;;;2.90;1.80;;;27.70;58.60;;;;;;5057644;28;20028;-68
2023/08/03 10:00:50;;;;;;;3.03;1.27;;;28.00;58.30;;;;;;5060352;28;20798;-68
2023/08/03 10:03:20;;;;;;;3.75;1.92;;;28.20;57.90;;;;;;5044533;28;20066;-70
2023/08/03 10:06:19;;;;;;;2.10;1.50;;;28.40;57.50;;;;;;5059221;28;20028;-68
2023/08/03 10:09:05;;;;;;;1.48;1.35;;;28.60;57.00;;;;;;5057124;28;20051;-68
2023/08/03 10:11:53;;;;;;;2.00;1.48;;;28.80;56.60;;;;;;5067631;28;20459;-68
2023/08/03 10:14:30;;;;;;;1.88;1.30;;;28.90;56.30;;;;;;5069138;28;20058;-69
2023/08/03 10:17:04;;;;;;;1.47;0.93;;;29.00;56.20;;;;;;5060312;28;20140;-69
2023/08/03 10:19:32;;;;;;;2.45;1.55;;;29.10;56.20;;;;;;5061314;28;20760;-75
2023/08/03 10:21:58;;;;;;;1.67;1.13;;;29.10;56.00;;;;;;5059594;28;20032;-72
2023/08/03 10:24:24;;;;;;;1.63;1.10;;;29.20;55.80;;;;;;5068459;28;20028;-72
2023/08/03 10:26:54;;;;;;;2.10;1.10;;;29.20;55.60;;;;;;5058250;28;20040;-68
2023/08/03 10:29:51;;;;;;;1.60;1.00;;;29.40;55.30;;;;;;5061594;28;20020;-68
2023/08/03 10:32:27;;;;;;;2.28;1.10;;;29.60;54.60;;;;;;5053623;28;20040;-69
2023/08/03 10:34:58;;;;;;;2.45;0.77;;;29.70;54.40;;;;;;5057726;28;20056;-71
2023/08/03 10:37:25;;;;;;;1.67;0.98;;;29.80;54.10;;;;;;5063572;28;20062;-69
2023/08/03 10:39:56;;;;;;;1.08;0.77;;;29.60;53.20;;;;;;5062506;28;20048;-67
2023/08/03 10:42:40;;;;;;;5.90;1.80;;;29.30;53.00;;;;;;5052777;28;20097;-68
2023/08/03 10:45:34;;;;;;;2.03;0.90;;;29.10;52.90;;;;;;5054018;28;20036;-68
2023/08/03 10:48:30;;;;;;;1.83;1.00;;;29.00;53.00;;;;;;5055109;28;20079;-70
2023/08/03 10:50:58;;;;;;;4.15;1.17;;;29.10;53.10;;;;;;5066928;28;20476;-68
2023/08/03 10:53:24;;;;;;;4.63;1.52;;;29.30;53.10;;;;;;5054449;28;20029;-71
2023/08/03 10:56:02;;;;;;;3.28;1.38;;;29.50;52.90;;;;;;5060320;28;20040;-70
2023/08/03 10:58:29;;;;;;;5.78;2.67;;;29.60;52.60;;;;;;5058834;28;20056;-68
2023/08/03 11:00:54;;;;;;;10.70;2.75;;;29.80;52.50;;;;;;5057234;28;20630;-71
2023/08/03 11:03:20;;;;;;;10.15;2.92;;;30.00;52.20;;;;;;5062400;28;20041;-69
2023/08/03 11:05:55;;;;;;;9.60;3.58;;;30.10;52.00;;;;;;5059425;28;20036;-69
2023/08/03 11:08:22;;;;;;;13.20;4.35;;;30.30;51.80;;;;;;5048348;28;20039;-74
2023/08/03 11:10:49;;;;;;;10.98;3.95;;;30.30;51.80;;;;;;5066299;28;20044;-71
2023/08/03 11:13:15;;;;;;;10.50;3.90;;;30.40;51.60;;;;;;5057199;28;20090;-69
2023/08/03 11:15:41;;;;;;;12.10;3.97;;;30.30;51.60;;;;;;5059170;28;20032;-70
2023/08/03 11:18:14;;;;;;;9.50;4.13;;;30.30;51.60;;;;;;5062705;28;20062;-68
2023/08/03 11:20:41;;;;;;;12.45;4.88;;;30.30;51.60;;;;;;5069498;28;20024;-68
2023/08/03 11:23:12;;;;;;;9.07;4.28;;;30.20;51.80;;;;;;5058837;28;20834;-68
2023/08/03 11:25:39;;;;;;;10.82;3.47;;;30.10;51.70;;;;;;5064488;28;20039;-67
2023/08/03 11:28:05;;;;;;;9.30;3.72;;;30.10;52.60;;;;;;5065557;28;20040;-71
2023/08/03 11:30:31;;;;;;;8.15;3.45;;;30.00;52.00;;;;;;5062079;28;20707;-69
2023/08/03 11:33:00;;;;;;;11.35;3.78;;;30.00;52.00;;;;;;5069464;28;20078;-69
2023/08/03 11:35:27;;;;;;;7.97;4.20;;;30.00;52.10;;;;;;5069280;28;20093;-72
2023/08/03 11:37:53;;;;;;;9.10;3.40;;;30.00;52.10;;;;;;5064430;28;20051;-71
2023/08/03 11:40:19;;;;;;;5.82;2.80;;;30.00;52.10;;;;;;5063661;28;20128;-69
2023/08/03 11:42:45;;;;;;;7.47;3.22;;;30.10;52.20;;;;;;5064606;28;20039;-69
2023/08/03 11:45:12;;;;;;;10.52;3.10;;;30.00;52.10;;;;;;5064689;28;20051;-70
2023/08/03 11:47:43;;;;;;;9.13;3.78;;;30.00;52.10;;;;;;5055127;28;20032;-71
2023/08/03 11:50:09;;;;;;;5.05;2.05;;;30.00;52.10;;;;;;5061089;28;20810;-71
2023/08/03 11:52:34;;;;;;;4.70;1.88;;;29.90;52.10;;;;;;5065824;28;20048;-69
2023/08/03 11:55:00;;;;;;;3.53;2.30;;;29.90;52.00;;;;;;5060235;28;20036;-71
2023/08/03 12:00:14;;;;;;;6.50;2.22;;;29.90;52.20;;;;;;5056632;28;20512;-73
2023/08/03 12:02:43;;;;;;;4.10;2.35;;;29.90;52.20;;;;;;5058973;28;20190;-71
2023/08/03 12:05:09;;;;;;;5.25;2.13;;;29.90;52.30;;;;;;5063728;28;20575;-68
2023/08/03 12:07:35;;;;;;;3.95;2.17;;;29.90;52.10;;;;;;5049932;28;20635;-69
2023/08/03 12:10:08;;;;;;;5.47;1.70;;;30.00;52.10;;;;;;5068689;28;20029;-68
2023/08/03 12:12:34;;;;;;;4.88;1.80;;;30.10;52.10;;;;;;5060704;28;20040;-70
2023/08/03 12:15:00;;;;;;;3.58;1.95;;;30.30;51.90;;;;;;5059168;28;20594;-68
2023/08/03 12:17:25;;;;;;;4.53;1.88;;;30.40;51.60;;;;;;5058130;28;20032;-68
2023/08/03 12:19:51;;;;;;;3.95;2.28;;;30.60;51.40;;;;;;5070188;28;20028;-69
2023/08/03 12:22:17;;;;;;;1.70;1.45;;;30.70;51.10;;;;;;5064379;28;20151;-68
2023/08/03 12:24:43;;;;;;;4.00;1.58;;;30.90;51.00;;;;;;5060710;28;20039;-70
2023/08/03 12:27:09;;;;;;;4.38;1.52;;;31.00;50.90;;;;;;5066002;28;20037;-70
2023/08/03 12:29:35;;;;;;;5.15;1.90;;;31.00;50.70;;;;;;5058220;28;20025;-72
2023/08/03 12:32:01;;;;;;;3.22;1.70;;;31.00;50.80;;;;;;5066147;28;20048;-72
2023/08/03 12:34:27;;;;;;;2.50;1.23;;;30.90;50.70;;;;;;5065468;28;20485;-68
2023/08/03 12:36:53;;;;;;;2.35;1.40;;;30.80;50.70;;;;;;5068554;28;20044;-69
2023/08/03 12:39:19;;;;;;;2.58;1.50;;;30.70;50.60;;;;;;5066419;28;20035;-69
2023/08/03 12:41:46;;;;;;;2.30;1.40;;;30.70;50.80;;;;;;5060739;28;20036;-73
2023/08/03 12:44:12;;;;;;;3.30;1.38;;;30.70;50.80;;;;;;5062447;28;20052;-74
2023/08/03 12:46:38;;;;;;;3.75;1.30;;;30.70;50.80;;;;;;5060358;28;20036;-70
2023/08/03 12:49:03;;;;;;;2.15;1.50;;;30.70;50.70;;;;;;5053678;28;20036;-74
2023/08/03 12:51:30;;;;;;;1.90;1.33;;;30.70;50.60;;;;;;5059991;28;20131;-69